Time;durP1;ratioP1;P1;durP2;ratioP2;P2;SDS_P1;SDS_P2;PMS_P1;PMS_P2;Temp;Humidity;BMP_temperature;BMP_pressure;BME280_temperature;BME280_humidity;BME280_pressure;Samples;Min_cycle;Max_cycle;Signal;HPM_P1;HPM_P2
2022/01/26 00:06:37;;;;;;;46.50;27.30;;;6.20;99.90;;;;;;5088581;28;20187;-39
2022/01/26 00:09:04;;;;;;;44.27;25.53;;;6.10;99.90;;;;;;5089620;28;20788;-40
2022/01/26 00:11:33;;;;;;;43.47;24.67;;;6.00;99.90;;;;;;5076514;28;20473;-39
2022/01/26 00:14:02;;;;;;;46.43;25.70;;;6.00;99.90;;;;;;5089685;28;20895;-39
2022/01/26 00:16:39;;;;;;;42.33;24.53;;;6.20;99.90;;;;;;5089746;28;20877;-40
2022/01/26 00:19:08;;;;;;;38.47;23.30;;;5.60;99.90;;;;;;5088905;28;20426;-41
2022/01/26 00:21:43;;;;;;;40.30;24.30;;;5.80;99.90;;;;;;5088932;28;20891;-39
2022/01/26 00:29:24;;;;;;;43.30;25.47;;;5.80;99.90;;;;;;5089350;28;20429;-40
2022/01/26 00:40:37;;;;;;;50.03;28.33;;;5.70;99.90;;;;;;5082425;28;20462;-40
2022/01/26 00:43:16;;;;;;;48.73;27.60;;;5.40;99.90;;;;;;5089117;28;20668;-39
2022/01/26 00:45:42;;;;;;;45.60;26.80;;;5.50;99.90;;;;;;5089074;28;20418;-40
2022/01/26 00:48:10;;;;;;;52.73;28.40;;;5.50;99.90;;;;;;5089179;28;20426;-40
2022/01/26 00:50:37;;;;;;;51.93;28.80;;;5.40;99.90;;;;;;5088328;28;20484;-39
2022/01/26 00:53:05;;;;;;;51.23;28.90;;;5.50;99.90;;;;;;5089496;28;20423;-39
2022/01/26 00:55:31;;;;;;;53.33;28.60;;;5.40;99.90;;;;;;5084417;28;20438;-39
2022/01/26 00:57:57;;;;;;;53.07;29.10;;;5.40;99.90;;;;;;5085501;28;20646;-40
2022/01/26 01:00:25;;;;;;;53.37;29.20;;;5.30;99.90;;;;;;5088099;28;20454;-40
2022/01/26 01:02:53;;;;;;;57.10;30.73;;;5.40;99.90;;;;;;5088885;28;20422;-40
2022/01/26 01:05:27;;;;;;;52.00;29.33;;;5.30;99.90;;;;;;5089078;28;20785;-39
2022/01/26 01:08:01;;;;;;;59.27;30.27;;;5.50;99.90;;;;;;5088500;28;20784;-40
2022/01/26 01:10:27;;;;;;;57.57;29.97;;;5.10;99.90;;;;;;5083541;28;20431;-40
2022/01/26 01:12:56;;;;;;;51.20;29.83;;;5.20;99.90;;;;;;5082326;28;20426;-40
2022/01/26 01:15:24;;;;;;;56.67;29.90;;;5.30;99.90;;;;;;5088414;28;20237;-39
2022/01/26 01:17:55;;;;;;;52.70;28.87;;;5.40;99.90;;;;;;5088766;28;20439;-39
2022/01/26 01:20:43;;;;;;;49.97;31.60;;;5.40;99.90;;;;;;5087217;28;20600;-39
2022/01/26 01:23:30;;;;;;;62.90;31.47;;;5.30;99.90;;;;;;5088285;28;20586;-40
2022/01/26 01:28:47;;;;;;;61.73;30.73;;;4.90;99.90;;;;;;5086610;28;20992;-39
2022/01/26 01:31:19;;;;;;;55.47;28.87;;;5.10;99.90;;;;;;5087769;28;20777;-40
2022/01/26 01:33:48;;;;;;;59.17;29.40;;;5.30;99.90;;;;;;5088446;28;20437;-41
2022/01/26 01:36:14;;;;;;;53.07;29.80;;;5.20;99.90;;;;;;5088185;28;20426;-40
2022/01/26 01:38:42;;;;;;;56.17;29.43;;;5.20;99.90;;;;;;5088324;28;20462;-39
2022/01/26 01:41:09;;;;;;;52.70;28.80;;;5.00;99.90;;;;;;5081918;28;20479;-39
2022/01/26 01:43:34;;;;;;;52.53;29.63;;;5.10;99.90;;;;;;5087308;28;20433;-39
2022/01/26 01:46:01;;;;;;;60.27;31.07;;;4.90;99.90;;;;;;5088317;28;20422;-40
2022/01/26 01:48:31;;;;;;;48.47;28.90;;;5.00;99.90;;;;;;5088152;28;20184;-39
2022/01/26 01:51:00;;;;;;;52.33;28.27;;;4.80;99.90;;;;;;5087542;28;20481;-40
2022/01/26 01:53:59;;;;;;;51.37;28.97;;;5.10;99.90;;;;;;5087892;28;20434;-39
2022/01/26 01:56:22;;;;;;;56.63;30.83;;;4.90;99.90;;;;;;5076962;28;20498;-40
2022/01/26 01:58:48;;;;;;;60.47;30.60;;;4.90;99.90;;;;;;5081389;28;20810;-40
2022/01/26 02:01:14;;;;;;;55.80;31.50;;;5.10;99.90;;;;;;5087042;28;20509;-39
2022/01/26 02:03:39;;;;;;;54.53;29.20;;;4.90;99.90;;;;;;5087257;28;20489;-39
2022/01/26 02:06:05;;;;;;;56.37;29.97;;;4.80;99.90;;;;;;5087463;28;20275;-39
2022/01/26 02:08:31;;;;;;;57.17;29.37;;;5.00;99.90;;;;;;5087586;28;20567;-40
2022/01/26 02:10:56;;;;;;;56.30;30.27;;;5.10;99.90;;;;;;5081545;28;20288;-39
2022/01/26 02:16:08;;;;;;;47.97;28.50;;;5.00;99.90;;;;;;5087781;28;20184;-39
2022/01/26 03:04:56;;;;;;;49.90;27.90;;;4.70;99.90;;;;;;5069970;28;20871;-40
2022/01/26 03:07:42;;;;;;;54.00;28.50;;;4.60;99.90;;;;;;5087437;28;20514;-39
2022/01/26 03:10:21;;;;;;;52.93;28.87;;;4.70;99.90;;;;;;5086475;28;20846;-40
2022/01/26 03:15:27;;;;;;;51.80;29.20;;;4.70;99.90;;;;;;5086994;28;20433;-39
2022/01/26 03:20:19;;;;;;;57.23;32.27;;;4.60;99.90;;;;;;5086291;28;20528;-39
2022/01/26 03:28:24;;;;;;;59.30;30.77;;;4.50;99.90;;;;;;5075838;28;20535;-40
2022/01/26 03:33:52;;;;;;;56.70;30.60;;;4.40;99.90;;;;;;5087055;28;20441;-39
2022/01/26 03:36:16;;;;;;;56.00;30.30;;;4.60;99.90;;;;;;5085774;28;20723;-39
2022/01/26 03:38:48;;;;;;;63.43;32.20;;;4.40;99.90;;;;;;5087266;28;20517;-40
2022/01/26 03:43:44;;;;;;;59.83;32.60;;;4.40;99.90;;;;;;5082135;28;20912;-39
2022/01/26 03:46:10;;;;;;;65.67;31.57;;;4.50;99.90;;;;;;5090369;28;20418;-40
2022/01/26 03:48:36;;;;;;;58.07;30.97;;;4.60;99.90;;;;;;5090731;28;20418;-39
2022/01/26 03:51:02;;;;;;;59.70;31.87;;;4.50;99.90;;;;;;5090106;28;20526;-39
2022/01/26 03:53:27;;;;;;;59.03;31.47;;;4.40;99.90;;;;;;5089085;28;20237;-39
2022/01/26 03:55:53;;;;;;;60.73;30.50;;;4.50;99.90;;;;;;5090499;28;20426;-39
2022/01/26 03:58:19;;;;;;;63.50;32.57;;;4.40;99.90;;;;;;5080628;28;20203;-39
2022/01/26 04:00:45;;;;;;;66.07;33.30;;;4.30;99.90;;;;;;5088114;28;20236;-39
2022/01/26 04:03:11;;;;;;;58.80;32.70;;;4.40;99.90;;;;;;5090078;28;20220;-39
2022/01/26 04:05:36;;;;;;;64.53;32.13;;;4.00;99.90;;;;;;5090326;28;20457;-39
2022/01/26 04:08:09;;;;;;;65.93;33.17;;;4.10;99.90;;;;;;5090041;28;20450;-40
2022/01/26 04:13:19;;;;;;;58.30;30.30;;;4.30;99.90;;;;;;5084490;28;20449;-40
2022/01/26 04:15:45;;;;;;;62.23;30.43;;;4.10;99.90;;;;;;5090209;28;20800;-39
2022/01/26 04:18:16;;;;;;;60.70;31.70;;;4.10;99.90;;;;;;5089951;28;20238;-39
2022/01/26 04:20:46;;;;;;;60.67;32.07;;;4.00;99.90;;;;;;5089888;28;20232;-39
2022/01/26 04:23:21;;;;;;;59.37;32.87;;;3.90;99.90;;;;;;5089644;28;20438;-39
2022/01/26 04:25:49;;;;;;;61.83;33.20;;;4.00;99.90;;;;;;5090168;28;20414;-40
2022/01/26 04:28:24;;;;;;;60.20;31.63;;;4.00;99.90;;;;;;5076809;28;20797;-39
2022/01/26 04:30:50;;;;;;;70.43;33.23;;;3.90;99.90;;;;;;5082070;28;20425;-39
2022/01/26 04:33:16;;;;;;;71.03;36.27;;;4.00;99.90;;;;;;5090042;28;20431;-39
2022/01/26 04:35:45;;;;;;;66.03;34.60;;;3.90;99.90;;;;;;5088563;28;20422;-42
2022/01/26 04:38:27;;;;;;;74.03;36.70;;;3.90;99.90;;;;;;5089427;28;20430;-39
2022/01/26 04:43:28;;;;;;;86.77;40.03;;;4.00;99.90;;;;;;5073797;28;20443;-39
2022/01/26 04:45:54;;;;;;;103.30;41.97;;;4.10;99.90;;;;;;5085295;28;20775;-39
2022/01/26 04:48:20;;;;;;;88.33;41.67;;;4.00;99.90;;;;;;5089315;28;20514;-39
2022/01/26 04:50:46;;;;;;;97.90;42.53;;;4.00;99.90;;;;;;5088241;28;20466;-39
2022/01/26 04:53:12;;;;;;;92.33;41.10;;;4.10;99.90;;;;;;5088948;28;20567;-39
2022/01/26 04:55:38;;;;;;;89.70;40.53;;;3.80;99.90;;;;;;5088923;28;20800;-39
2022/01/26 04:58:04;;;;;;;96.40;40.97;;;4.00;99.90;;;;;;5079252;28;20465;-39
2022/01/26 05:00:29;;;;;;;93.13;41.70;;;4.10;99.90;;;;;;5086827;28;20480;-39
2022/01/26 05:02:55;;;;;;;92.90;41.57;;;3.90;99.90;;;;;;5089547;28;20541;-39
2022/01/26 05:05:21;;;;;;;91.00;42.13;;;4.10;99.90;;;;;;5088623;28;20588;-41
2022/01/26 05:07:46;;;;;;;106.97;46.87;;;4.20;99.90;;;;;;5088118;28;20196;-39
2022/01/26 05:10:12;;;;;;;95.47;41.73;;;4.00;99.90;;;;;;5088361;28;20552;-39
2022/01/26 05:12:39;;;;;;;91.47;41.47;;;4.20;99.90;;;;;;5081116;28;20881;-39
2022/01/26 05:15:05;;;;;;;101.23;41.97;;;4.10;99.90;;;;;;5083777;28;20509;-40
2022/01/26 05:17:31;;;;;;;105.20;44.87;;;3.90;99.90;;;;;;5088549;28;20592;-39
2022/01/26 05:19:59;;;;;;;94.00;44.10;;;3.90;99.90;;;;;;5088443;28;20184;-39
2022/01/26 05:22:25;;;;;;;102.70;44.60;;;4.30;99.90;;;;;;5088205;28;20217;-39
2022/01/26 05:24:52;;;;;;;109.07;44.93;;;4.30;99.90;;;;;;5088577;28;20430;-39
2022/01/26 05:27:18;;;;;;;107.33;45.23;;;4.20;99.90;;;;;;5083896;28;20195;-39
2022/01/26 05:29:44;;;;;;;114.20;47.07;;;3.90;99.90;;;;;;5083484;28;20792;-40
2022/01/26 05:32:10;;;;;;;111.37;45.17;;;4.00;99.90;;;;;;5086977;28;20445;-39
2022/01/26 05:34:36;;;;;;;112.43;46.20;;;3.90;99.90;;;;;;5088571;28;20207;-42
2022/01/26 05:37:01;;;;;;;110.50;45.93;;;4.10;99.90;;;;;;5088586;28;20211;-39
2022/01/26 05:39:27;;;;;;;106.87;46.10;;;3.90;99.90;;;;;;5088695;28;20276;-39
2022/01/26 05:41:53;;;;;;;100.37;42.90;;;4.20;99.90;;;;;;5080472;28;20693;-39
2022/01/26 05:44:18;;;;;;;108.73;45.93;;;4.10;99.90;;;;;;5080074;28;20196;-39
2022/01/26 05:46:48;;;;;;;103.63;45.27;;;4.50;99.90;;;;;;5078933;28;20280;-39
2022/01/26 05:49:16;;;;;;;103.77;45.30;;;4.30;99.90;;;;;;5084562;28;20434;-40
2022/01/26 05:51:45;;;;;;;102.10;46.30;;;4.20;99.90;;;;;;5087024;28;20426;-39
2022/01/26 05:54:11;;;;;;;107.43;46.77;;;4.30;99.90;;;;;;5088213;28;20433;-42
2022/01/26 05:56:37;;;;;;;106.70;47.27;;;4.20;99.90;;;;;;5088001;28;20819;-39
2022/01/26 05:59:03;;;;;;;109.70;49.67;;;4.20;99.90;;;;;;5076590;28;20438;-40
2022/01/26 06:01:29;;;;;;;112.77;49.13;;;4.00;99.90;;;;;;5086714;28;21034;-39
2022/01/26 06:03:55;;;;;;;113.63;47.60;;;4.00;99.90;;;;;;5087880;28;20520;-40
2022/01/26 06:06:20;;;;;;;122.13;49.43;;;4.00;99.90;;;;;;5086630;28;20527;-39
2022/01/26 06:08:46;;;;;;;113.60;49.20;;;4.10;99.90;;;;;;5086731;28;20195;-39
2022/01/26 06:11:12;;;;;;;105.50;46.67;;;4.00;99.90;;;;;;5086124;28;20188;-41
2022/01/26 06:13:37;;;;;;;107.87;45.73;;;3.80;99.90;;;;;;5070728;28;20279;-39
2022/01/26 06:16:04;;;;;;;111.83;47.47;;;4.00;99.90;;;;;;5087558;28;20796;-40
2022/01/26 06:18:30;;;;;;;98.57;44.07;;;4.00;99.90;;;;;;5087715;28;20196;-39
2022/01/26 06:20:55;;;;;;;96.87;42.00;;;3.90;99.90;;;;;;5087065;28;20466;-39
2022/01/26 06:23:24;;;;;;;101.33;45.10;;;3.90;99.90;;;;;;5087740;28;20192;-40
2022/01/26 06:25:55;;;;;;;97.27;41.40;;;3.90;99.90;;;;;;5087904;28;20422;-39
2022/01/26 06:28:23;;;;;;;99.43;44.30;;;4.00;99.90;;;;;;5076094;28;20454;-39
2022/01/26 06:30:52;;;;;;;100.10;45.17;;;3.90;99.90;;;;;;5086661;28;20932;-39
2022/01/26 06:33:18;;;;;;;101.00;44.10;;;4.20;99.90;;;;;;5087756;28;20437;-39
2022/01/26 06:35:44;;;;;;;99.23;43.10;;;4.10;99.90;;;;;;5085726;28;20427;-40
2022/01/26 06:38:10;;;;;;;99.47;43.57;;;4.30;99.90;;;;;;5087656;28;20660;-40
2022/01/26 06:40:36;;;;;;;109.07;45.40;;;4.30;99.90;;;;;;5086703;28;20461;-40
2022/01/26 06:43:08;;;;;;;105.33;44.10;;;4.20;99.90;;;;;;5084102;28;20189;-40
2022/01/26 06:45:38;;;;;;;101.70;44.40;;;4.20;99.90;;;;;;5085445;28;20514;-40
2022/01/26 06:50:48;;;;;;;111.87;45.57;;;3.90;99.90;;;;;;5087015;28;20841;-39
2022/01/26 06:53:14;;;;;;;109.00;43.57;;;3.90;99.90;;;;;;5087390;28;20431;-39
2022/01/26 06:55:40;;;;;;;94.87;42.90;;;3.90;99.90;;;;;;5084916;28;20283;-40
2022/01/26 06:58:06;;;;;;;99.97;43.20;;;4.00;99.90;;;;;;5077231;28;20285;-40
2022/01/26 07:00:32;;;;;;;104.77;44.37;;;4.00;99.90;;;;;;5085089;28;20565;-39
2022/01/26 07:02:57;;;;;;;114.43;47.37;;;4.00;99.90;;;;;;5087069;28;20196;-39
2022/01/26 07:05:23;;;;;;;108.77;46.17;;;3.90;99.90;;;;;;5087157;28;20212;-39
2022/01/26 07:07:50;;;;;;;104.97;45.10;;;3.90;99.90;;;;;;5080433;28;20189;-39
2022/01/26 07:10:16;;;;;;;104.00;42.67;;;3.90;99.90;;;;;;5079665;28;20516;-40
2022/01/26 07:12:42;;;;;;;102.63;42.33;;;3.80;99.90;;;;;;5082671;28;20492;-39
2022/01/26 07:23:09;;;;;;;98.63;41.60;;;3.90;99.90;;;;;;5089853;28;20435;-40
2022/01/26 07:25:35;;;;;;;96.17;43.27;;;4.00;99.90;;;;;;5090810;28;20438;-40
2022/01/26 07:28:03;;;;;;;109.23;43.20;;;4.00;99.90;;;;;;5087809;28;20434;-40
2022/01/26 07:30:31;;;;;;;102.83;41.13;;;4.20;99.90;;;;;;5086046;28;20488;-39
2022/01/26 07:32:56;;;;;;;105.03;43.47;;;4.00;99.90;;;;;;5088570;28;20429;-39
2022/01/26 07:35:22;;;;;;;100.60;40.67;;;4.10;99.90;;;;;;5088601;28;20426;-40
2022/01/26 07:37:50;;;;;;;90.63;39.50;;;3.80;99.90;;;;;;5088477;28;20672;-40
2022/01/26 07:40:16;;;;;;;98.47;40.60;;;3.90;99.90;;;;;;5087999;28;20445;-39
2022/01/26 07:42:42;;;;;;;90.67;40.43;;;3.90;99.90;;;;;;5078216;28;20419;-39
2022/01/26 07:45:10;;;;;;;93.77;39.80;;;3.90;99.90;;;;;;5084860;28;20415;-39
2022/01/26 07:47:37;;;;;;;97.53;39.30;;;3.90;99.90;;;;;;5088835;28;20674;-39
2022/01/26 07:50:08;;;;;;;97.50;41.13;;;4.20;99.90;;;;;;5088023;28;20481;-39
2022/01/26 07:52:38;;;;;;;89.90;39.43;;;3.90;99.90;;;;;;5089729;28;20789;-39
2022/01/26 07:55:05;;;;;;;97.17;40.27;;;3.90;99.90;;;;;;5088818;28;20639;-39
2022/01/26 07:57:30;;;;;;;89.63;39.63;;;3.90;99.90;;;;;;5090184;28;20454;-40
2022/01/26 07:59:56;;;;;;;100.93;42.80;;;3.80;99.90;;;;;;5083908;28;20498;-39
2022/01/26 08:02:23;;;;;;;95.97;41.07;;;3.90;99.90;;;;;;5089749;28;20244;-40
2022/01/26 08:04:49;;;;;;;90.03;39.90;;;3.90;99.90;;;;;;5089668;28;20423;-39
2022/01/26 08:07:15;;;;;;;91.27;41.10;;;3.90;99.90;;;;;;5089975;28;20482;-39
2022/01/26 08:09:44;;;;;;;97.03;40.53;;;4.00;99.90;;;;;;5089265;28;20551;-39
2022/01/26 08:12:15;;;;;;;93.47;39.57;;;3.90;99.90;;;;;;5090258;28;20192;-39
2022/01/26 08:14:41;;;;;;;93.67;37.90;;;3.90;99.90;;;;;;5085010;28;20784;-39
2022/01/26 08:17:08;;;;;;;104.03;43.20;;;4.00;99.90;;;;;;5088754;28;20439;-40
2022/01/26 08:19:34;;;;;;;100.70;39.67;;;3.80;99.90;;;;;;5089166;28;20418;-39
2022/01/26 08:22:01;;;;;;;99.97;40.93;;;3.70;99.90;;;;;;5089928;28;20632;-39
2022/01/26 08:24:28;;;;;;;92.63;40.67;;;4.00;99.90;;;;;;5089941;28;20910;-39
2022/01/26 08:26:57;;;;;;;101.53;43.20;;;4.00;99.90;;;;;;5089677;28;20506;-39
2022/01/26 08:29:28;;;;;;;93.43;39.77;;;4.10;99.90;;;;;;5078432;28;20689;-39
2022/01/26 08:31:54;;;;;;;92.93;39.20;;;4.10;99.90;;;;;;5088800;28;21065;-39
2022/01/26 08:34:20;;;;;;;106.57;45.37;;;4.10;99.90;;;;;;5089573;28;20796;-39
2022/01/26 08:36:46;;;;;;;107.53;43.37;;;4.20;99.90;;;;;;5089015;28;20192;-39
2022/01/26 08:39:12;;;;;;;101.10;42.20;;;4.10;99.90;;;;;;5089507;28;20196;-39
2022/01/26 08:41:38;;;;;;;101.07;40.30;;;4.10;99.90;;;;;;5088829;28;20462;-39
2022/01/26 08:44:04;;;;;;;108.67;41.20;;;4.10;99.90;;;;;;5081272;28;20930;-40
2022/01/26 08:46:29;;;;;;;114.60;47.13;;;4.30;99.90;;;;;;5087535;28;20572;-39
2022/01/26 08:48:55;;;;;;;96.93;40.90;;;4.20;99.90;;;;;;5089527;28;21016;-39
2022/01/26 08:51:21;;;;;;;93.60;38.90;;;4.20;99.90;;;;;;5088620;28;20265;-39
2022/01/26 08:53:47;;;;;;;99.30;38.37;;;3.90;99.90;;;;;;5089380;28;20196;-39
2022/01/26 08:56:14;;;;;;;99.10;38.40;;;4.00;99.90;;;;;;5088973;28;20923;-39
2022/01/26 08:58:39;;;;;;;100.10;39.17;;;4.10;99.90;;;;;;5086684;28;20888;-39
2022/01/26 09:01:05;;;;;;;88.93;39.17;;;4.10;99.90;;;;;;5083851;28;20519;-40
2022/01/26 09:03:37;;;;;;;98.17;39.00;;;3.90;99.90;;;;;;5087338;28;20185;-39
2022/01/26 09:06:03;;;;;;;91.33;38.87;;;3.90;99.90;;;;;;5089473;28;20452;-39
2022/01/26 09:08:29;;;;;;;98.13;40.70;;;3.80;99.90;;;;;;5076218;28;20431;-39
2022/01/26 09:11:00;;;;;;;91.53;38.03;;;3.90;99.90;;;;;;5087521;28;20430;-39
2022/01/26 09:13:26;;;;;;;92.23;35.73;;;4.10;99.90;;;;;;5086422;28;20494;-40
2022/01/26 09:15:53;;;;;;;95.40;38.80;;;4.10;99.90;;;;;;5081781;28;20869;-40
2022/01/26 09:18:30;;;;;;;87.80;37.13;;;3.90;99.90;;;;;;5087738;28;20419;-39
2022/01/26 09:20:56;;;;;;;96.90;39.27;;;4.00;99.90;;;;;;5087929;28;20870;-39
2022/01/26 09:23:21;;;;;;;86.57;37.10;;;4.00;99.90;;;;;;5088257;28;20430;-39
2022/01/26 09:25:47;;;;;;;87.30;39.57;;;4.00;99.90;;;;;;5087979;28;20184;-39
2022/01/26 09:28:13;;;;;;;91.57;39.00;;;3.70;99.90;;;;;;5088391;28;20279;-39
2022/01/26 09:30:38;;;;;;;100.73;38.27;;;3.90;99.90;;;;;;5077204;28;20267;-39
2022/01/26 09:33:04;;;;;;;99.20;38.57;;;3.80;99.90;;;;;;5088264;28;20267;-39
2022/01/26 09:35:30;;;;;;;88.40;36.17;;;3.60;99.90;;;;;;5088509;28;20203;-39
2022/01/26 09:37:55;;;;;;;93.10;39.30;;;3.90;99.90;;;;;;5088245;28;20282;-40
2022/01/26 09:40:21;;;;;;;97.97;40.60;;;3.60;99.90;;;;;;5087281;28;20184;-39
2022/01/26 09:42:49;;;;;;;99.83;36.97;;;3.40;99.90;;;;;;5088580;28;20195;-39
2022/01/26 09:45:15;;;;;;;106.10;38.90;;;3.70;99.90;;;;;;5074825;28;20295;-39
2022/01/26 09:47:43;;;;;;;100.10;39.60;;;3.60;99.90;;;;;;5088104;28;20426;-39
2022/01/26 09:50:09;;;;;;;102.57;40.70;;;3.50;99.90;;;;;;5087716;28;20422;-39
2022/01/26 09:52:41;;;;;;;93.97;36.47;;;3.60;99.90;;;;;;5087744;28;20418;-40
2022/01/26 09:55:08;;;;;;;110.93;38.63;;;3.70;99.90;;;;;;5088302;28;20203;-39
2022/01/26 09:57:34;;;;;;;97.80;37.80;;;3.70;99.90;;;;;;5087812;28;21057;-40
2022/01/26 10:00:00;;;;;;;112.00;39.40;;;3.80;99.90;;;;;;5078680;28;20533;-41
2022/01/26 10:02:28;;;;;;;89.10;39.10;;;3.70;99.90;;;;;;5084109;28;20470;-39
2022/01/26 10:05:04;;;;;;;93.53;38.63;;;3.90;99.90;;;;;;5088322;28;20505;-39
2022/01/26 10:15:34;;;;;;;129.20;42.57;;;3.70;99.90;;;;;;5078241;28;20839;-40
2022/01/26 10:18:13;;;;;;;103.43;39.20;;;3.70;99.90;;;;;;5087409;28;20434;-40
2022/01/26 10:20:52;;;;;;;100.90;37.47;;;3.60;99.90;;;;;;5087161;28;20476;-40
2022/01/26 10:23:19;;;;;;;113.20;40.23;;;3.60;99.90;;;;;;5087684;28;20599;-41
2022/01/26 10:25:58;;;;;;;108.60;40.27;;;3.90;99.90;;;;;;5087862;28;20558;-41
2022/01/26 10:28:23;;;;;;;106.43;41.57;;;4.00;99.90;;;;;;5087198;28;20537;-40
2022/01/26 10:30:49;;;;;;;109.37;40.77;;;3.90;99.90;;;;;;5078181;28;20487;-42
2022/01/26 10:33:16;;;;;;;114.23;44.87;;;3.90;99.90;;;;;;5087221;28;20188;-39
2022/01/26 10:35:42;;;;;;;129.60;41.53;;;4.00;99.90;;;;;;5087449;28;20422;-39
2022/01/26 10:38:08;;;;;;;118.70;45.60;;;3.80;99.90;;;;;;5087518;28;20436;-40
2022/01/26 10:40:36;;;;;;;103.70;39.70;;;3.90;99.90;;;;;;5086619;28;20437;-40
2022/01/26 10:43:11;;;;;;;110.90;41.33;;;3.90;99.90;;;;;;5087629;28;20596;-39
2022/01/26 10:45:55;;;;;;;106.77;41.47;;;3.80;99.90;;;;;;5075406;28;20448;-39
2022/01/26 10:48:37;;;;;;;111.83;43.30;;;3.90;99.90;;;;;;5087283;28;20410;-39
2022/01/26 10:51:38;;;;;;;105.70;39.77;;;3.90;99.90;;;;;;5086247;28;20430;-39
2022/01/26 10:54:18;;;;;;;99.00;40.23;;;3.90;99.90;;;;;;5091635;28;20433;-39
2022/01/26 10:56:44;;;;;;;106.87;43.00;;;3.90;99.90;;;;;;5090988;28;21094;-41
2022/01/26 10:59:10;;;;;;;114.37;43.33;;;4.10;99.90;;;;;;5089481;28;20418;-39
2022/01/26 11:01:37;;;;;;;100.50;38.50;;;3.90;99.90;;;;;;5083034;28;20465;-39
2022/01/26 11:04:03;;;;;;;111.07;41.57;;;4.00;99.90;;;;;;5091761;28;20450;-40
2022/01/26 11:06:30;;;;;;;103.23;40.30;;;4.10;99.90;;;;;;5091629;28;20426;-42
2022/01/26 11:09:07;;;;;;;108.30;40.80;;;3.90;99.90;;;;;;5090097;28;20426;-39
2022/01/26 11:11:33;;;;;;;114.30;43.93;;;4.00;99.90;;;;;;5090145;28;20434;-40
2022/01/26 11:13:58;;;;;;;104.70;40.50;;;3.60;99.90;;;;;;5088242;28;20475;-40
2022/01/26 11:16:24;;;;;;;106.50;40.63;;;3.70;99.90;;;;;;5082031;28;20197;-42
2022/01/26 11:18:53;;;;;;;107.33;41.50;;;4.10;99.90;;;;;;5091102;28;20266;-39
2022/01/26 11:21:27;;;;;;;110.27;41.63;;;3.90;99.90;;;;;;5090473;28;20702;-40
2022/01/26 11:24:23;;;;;;;93.40;38.50;;;3.90;99.90;;;;;;5090851;28;20993;-39
2022/01/26 11:27:06;;;;;;;105.70;39.97;;;4.00;99.90;;;;;;5090556;28;20525;-40
2022/01/26 11:29:35;;;;;;;99.63;40.87;;;4.00;99.90;;;;;;5088238;28;20430;-40
2022/01/26 11:32:18;;;;;;;98.97;39.90;;;4.10;99.90;;;;;;5088945;28;20940;-39
2022/01/26 11:34:49;;;;;;;111.33;40.57;;;3.90;99.90;;;;;;5084751;28;20434;-40
2022/01/26 11:37:17;;;;;;;98.03;40.53;;;4.20;99.90;;;;;;5090949;28;20438;-40
2022/01/26 11:45:24;;;;;;;105.33;40.63;;;3.90;99.90;;;;;;5081674;28;20480;-39
2022/01/26 11:48:09;;;;;;;102.43;39.23;;;4.10;99.90;;;;;;5084713;28;20405;-39
2022/01/26 11:50:42;;;;;;;95.53;38.50;;;4.10;99.90;;;;;;5089797;28;20430;-40
2022/01/26 11:53:16;;;;;;;95.07;37.60;;;3.90;99.90;;;;;;5090425;28;21041;-40
2022/01/26 11:55:48;;;;;;;109.27;39.93;;;4.10;99.90;;;;;;5090254;28;20479;-40
2022/01/26 11:58:17;;;;;;;99.43;35.97;;;4.10;99.90;;;;;;5090640;28;20430;-39
2022/01/26 12:01:08;;;;;;;88.30;36.57;;;4.10;99.90;;;;;;5081959;28;20461;-39
2022/01/26 12:03:42;;;;;;;97.40;38.47;;;4.20;99.90;;;;;;5089082;28;20426;-39
2022/01/26 12:06:16;;;;;;;84.27;34.80;;;4.10;99.90;;;;;;5089940;28;20422;-39
2022/01/26 12:08:42;;;;;;;89.53;38.20;;;4.00;99.90;;;;;;5090323;28;20430;-39
2022/01/26 12:11:11;;;;;;;94.07;40.40;;;4.00;99.90;;;;;;5089507;28;20954;-39
2022/01/26 12:13:39;;;;;;;105.83;36.03;;;3.90;99.90;;;;;;5090078;28;20521;-39
2022/01/26 12:16:10;;;;;;;87.63;35.87;;;3.90;99.90;;;;;;5079081;28;20439;-39
2022/01/26 12:36:00;;;;;;;88.30;34.23;;;4.20;99.90;;;;;;5088150;28;20468;-39
2022/01/26 12:43:49;;;;;;;84.83;36.30;;;3.80;99.90;;;;;;5089540;28;20418;-39
2022/01/26 12:46:30;;;;;;;89.30;35.67;;;4.00;99.90;;;;;;5079779;28;20481;-39
2022/01/26 12:49:04;;;;;;;75.87;34.73;;;3.80;99.90;;;;;;5083611;28;20454;-39
2022/01/26 12:51:32;;;;;;;86.13;35.43;;;4.30;99.90;;;;;;5087128;28;20410;-40
2022/01/26 12:54:01;;;;;;;73.03;31.90;;;4.30;99.90;;;;;;5085960;28;20422;-39
2022/01/26 12:56:29;;;;;;;77.60;31.87;;;4.30;99.90;;;;;;5086478;28;20438;-39
2022/01/26 12:59:04;;;;;;;83.23;32.93;;;4.20;99.90;;;;;;5087827;28;20492;-39
2022/01/26 13:01:30;;;;;;;82.90;34.43;;;4.30;99.90;;;;;;5081049;28;20587;-39
2022/01/26 13:04:00;;;;;;;82.43;32.73;;;4.10;99.90;;;;;;5086427;28;20526;-40
2022/01/26 13:06:35;;;;;;;79.07;32.70;;;4.10;99.90;;;;;;5087263;28;20646;-39
2022/01/26 13:09:14;;;;;;;80.80;31.33;;;4.10;99.90;;;;;;5086454;28;20442;-39
2022/01/26 13:11:40;;;;;;;83.67;34.13;;;4.00;99.90;;;;;;5087501;28;20433;-40
2022/01/26 13:14:19;;;;;;;77.40;32.50;;;4.00;99.90;;;;;;5087711;28;20874;-41
2022/01/26 13:25:01;;;;;;;80.13;31.40;;;4.10;99.90;;;;;;5087722;28;20437;-39
2022/01/26 13:33:34;;;;;;;70.60;29.90;;;4.00;99.90;;;;;;5045837;28;20816;-40
2022/01/26 13:57:43;;;;;;;68.90;29.70;;;4.30;99.90;;;;;;5086636;28;20485;-39
2022/01/26 13:59:46;;;;;;;69.40;30.17;;;4.10;99.90;;;;;;5078390;28;20647;-39
2022/01/26 14:02:12;;;;;;;56.33;26.80;;;4.20;99.90;;;;;;5079189;28;20449;-39
2022/01/26 14:04:40;;;;;;;65.43;28.80;;;4.20;99.90;;;;;;5086643;28;20473;-39
2022/01/26 14:07:06;;;;;;;60.33;27.57;;;4.10;99.90;;;;;;5086162;28;20416;-39
2022/01/26 14:09:31;;;;;;;62.13;27.77;;;4.30;99.90;;;;;;5086957;28;21082;-40
2022/01/26 14:11:59;;;;;;;74.90;31.03;;;4.30;99.90;;;;;;5086602;28;20492;-39
2022/01/26 14:14:32;;;;;;;59.97;26.87;;;4.40;99.90;;;;;;5086654;28;20706;-39
2022/01/26 14:17:01;;;;;;;68.23;28.13;;;4.30;99.90;;;;;;5080024;28;20466;-39
2022/01/26 14:19:36;;;;;;;67.40;28.47;;;4.20;99.90;;;;;;5082201;28;20452;-39
2022/01/26 14:26:59;;;;;;;62.60;26.30;;;4.10;99.90;;;;;;5086030;28;20447;-39
2022/01/26 14:29:39;;;;;;;56.60;27.50;;;4.10;99.90;;;;;;5086690;28;20219;-40
2022/01/26 14:56:15;;;;;;;64.63;26.30;;;4.20;99.90;;;;;;5086556;28;20248;-39
2022/01/26 15:31:51;;;;;;;53.67;25.77;;;4.00;99.90;;;;;;5085521;28;20509;-41
2022/01/26 15:34:07;;;;;;;58.13;26.87;;;4.10;99.90;;;;;;5078197;28;20457;-39
2022/01/26 15:50:35;;;;;;;55.20;25.10;;;4.30;99.90;;;;;;5087560;28;20466;-39
2022/01/26 15:59:01;;;;;;;56.27;25.97;;;4.30;99.90;;;;;;5089089;28;20559;-40
2022/01/26 16:06:59;;;;;;;62.47;26.70;;;4.00;99.90;;;;;;5088006;28;20414;-39
2022/01/26 16:38:47;;;;;;;59.57;26.97;;;4.30;99.90;;;;;;5088123;28;20484;-39
2022/01/26 17:11:07;;;;;;;57.23;28.00;;;4.90;99.90;;;;;;5077210;28;20607;-39
2022/01/26 18:16:35;;;;;;;48.60;26.30;;;9.70;99.90;;;;;;5087975;28;20856;-40
2022/01/26 18:33:10;;;;;;;46.13;24.57;;;9.00;99.90;;;;;;5084305;28;20427;-40
2022/01/26 18:38:52;;;;;;;51.77;26.70;;;8.20;99.90;;;;;;5087527;28;20426;-40
2022/01/26 18:49:17;;;;;;;50.27;25.97;;;7.90;99.90;;;;;;5083361;28;20837;-39
2022/01/26 18:51:48;;;;;;;47.50;24.63;;;8.10;99.90;;;;;;5081573;28;20926;-40
2022/01/26 18:54:14;;;;;;;46.10;26.27;;;7.80;99.90;;;;;;5085949;28;20773;-42
2022/01/26 18:56:41;;;;;;;52.63;26.30;;;7.80;99.90;;;;;;5086733;28;20560;-40
2022/01/26 18:59:08;;;;;;;47.87;26.07;;;7.40;99.90;;;;;;5085830;28;20965;-40
2022/01/26 19:01:35;;;;;;;53.03;29.20;;;7.70;99.90;;;;;;5086661;28;20820;-41
2022/01/26 19:04:01;;;;;;;51.73;26.50;;;7.80;99.90;;;;;;5082289;28;20442;-40
2022/01/26 19:06:26;;;;;;;46.53;26.10;;;8.00;99.90;;;;;;5086521;28;20820;-40
2022/01/26 19:08:52;;;;;;;53.40;27.77;;;7.80;99.90;;;;;;5086995;28;20184;-40
2022/01/26 19:11:20;;;;;;;44.90;25.30;;;7.90;99.90;;;;;;5086274;28;20200;-40
2022/01/26 19:13:47;;;;;;;48.33;25.60;;;8.10;99.90;;;;;;5088228;28;20558;-41
2022/01/26 19:16:30;;;;;;;44.77;25.47;;;8.40;99.90;;;;;;5091412;28;20438;-41
2022/01/26 19:19:10;;;;;;;49.87;28.07;;;8.30;99.90;;;;;;5081861;28;20442;-40
2022/01/26 19:24:42;;;;;;;49.93;26.77;;;7.80;99.90;;;;;;5090915;28;20441;-40
2022/01/26 19:27:17;;;;;;;47.20;26.93;;;7.40;99.90;;;;;;5090414;28;20196;-41
2022/01/26 19:41:20;;;;;;;48.80;25.20;;;7.30;99.90;;;;;;5078715;28;20422;-40
2022/01/26 19:51:14;;;;;;;49.10;26.60;;;7.40;99.90;;;;;;5089385;28;20418;-39
2022/01/26 19:53:40;;;;;;;44.97;24.37;;;7.10;99.90;;;;;;5090200;28;20425;-40